Aviation Digital Data Service (ADDS)

Output produced by METARs form (0912 UTC 24 October 2017)
found at http://aviationweather.gov/adds/metars/
 
KJFK 240834Z 2409/2512 16018G30KT 5SM -SHRA SCT005 OVC012 WS020/17050KT 
     FM241200 16021G32KT 2SM +SHRA VCTS SCT005 OVC012CB WS020/17050KT 
     FM241500 17022G36KT 2SM +SHRA VCTS SCT005 OVC012CB WS020/17050KT 
     FM250200 21014G20KT 2SM +SHRA VCTS SCT005 OVC012CB WS020/17050KT 
     FM250300 22012KT 2SM +SHRA VCTS SCT005 OVC012CB 
     FM250500 17007KT 3SM SHRA SCT005 OVC012 
     FM250800 22006KT 5SM SHRA SCT008 OVC020